createdAt,value
2024-01-15T00:02:20.083Z,38.00
2024-01-15T00:04:49.930Z,37.90
2024-01-15T00:07:20.910Z,37.55
2024-01-15T00:09:52.446Z,37.03
2024-01-15T00:12:23.080Z,37.55
2024-01-15T00:14:53.944Z,38.17
2024-01-15T00:17:24.240Z,38.85
2024-01-15T00:19:55.204Z,37.35
2024-01-15T00:22:28.687Z,40.20
2024-01-15T00:24:58.597Z,42.97
2024-01-15T00:27:28.714Z,37.20
2024-01-15T00:29:58.610Z,41.38
2024-01-15T00:32:28.727Z,48.72
2024-01-15T00:34:58.670Z,48.60
2024-01-15T00:37:28.427Z,36.95
2024-01-15T00:39:59.267Z,35.50
2024-01-15T00:42:29.317Z,30.52
2024-01-15T00:44:59.152Z,30.23
2024-01-15T00:47:29.219Z,28.80
2024-01-15T00:50:01.422Z,30.35
2024-01-15T00:52:31.268Z,26.38
2024-01-15T00:55:01.388Z,27.60
2024-01-15T00:57:33.425Z,26.67
2024-01-15T01:00:06.531Z,30.23
2024-01-15T01:02:37.361Z,26.73
2024-01-15T01:05:07.657Z,25.55
2024-01-15T01:07:37.900Z,19.15
2024-01-15T01:10:08.960Z,23.52
2024-01-15T01:12:41.652Z,26.70
2024-01-15T01:15:11.682Z,30.65
2024-01-15T01:17:41.470Z,32.03
2024-01-15T01:20:14.158Z,23.42
2024-01-15T01:22:45.180Z,27.23
2024-01-15T01:25:15.361Z,26.52
2024-01-15T01:27:45.483Z,20.35
2024-01-15T01:30:15.769Z,20.48
2024-01-15T01:32:45.869Z,21.13
2024-01-15T01:35:16.185Z,17.25
2024-01-15T01:37:46.805Z,22.38
2024-01-15T01:40:17.156Z,20.85
2024-01-15T01:42:47.445Z,21.40
2024-01-15T01:45:17.790Z,19.77
2024-01-15T01:47:47.808Z,21.48
2024-01-15T01:50:17.904Z,24.08
2024-01-15T01:52:51.164Z,21.70
2024-01-15T01:55:21.809Z,25.63
2024-01-15T01:57:51.790Z,18.77
2024-01-15T02:00:22.028Z,17.60
2024-01-15T02:02:54.853Z,20.60
2024-01-15T02:05:24.864Z,28.08
2024-01-15T02:07:54.961Z,36.45
2024-01-15T02:10:25.776Z,37.55
2024-01-15T02:12:56.495Z,37.40
2024-01-15T02:15:26.774Z,36.97
2024-01-15T02:18:01.242Z,34.92
2024-01-15T02:20:31.413Z,41.67
2024-01-15T02:23:14.661Z,44.53
2024-01-15T02:25:53.430Z,37.45
2024-01-15T02:28:23.262Z,40.42
2024-01-15T02:30:53.479Z,38.85
2024-01-15T02:33:27.541Z,40.03
2024-01-15T02:35:57.597Z,34.38
2024-01-15T02:38:27.583Z,34.70
2024-01-15T02:40:57.670Z,41.90
2024-01-15T02:43:27.641Z,40.75
2024-01-15T02:45:57.392Z,36.28
2024-01-15T02:48:27.466Z,40.63
2024-01-15T02:50:57.469Z,36.40
2024-01-15T02:53:27.410Z,41.95
2024-01-15T02:55:57.396Z,35.80
2024-01-15T02:58:27.521Z,43.58
2024-01-15T03:00:57.617Z,31.83
2024-01-15T03:03:28.012Z,34.63
2024-01-15T03:05:58.142Z,30.67
2024-01-15T03:08:28.390Z,30.10
2024-01-15T03:10:59.268Z,31.60
2024-01-15T03:13:30.148Z,38.92
2024-01-15T03:16:00.733Z,35.53
2024-01-15T03:18:30.886Z,27.45
2024-01-15T03:21:03.408Z,31.83
2024-01-15T03:23:33.301Z,28.38
2024-01-15T03:26:03.617Z,35.17
2024-01-15T03:28:33.551Z,25.42
2024-01-15T03:31:03.479Z,28.90
2024-01-15T03:33:34.079Z,34.22
2024-01-15T03:36:13.047Z,32.55
2024-01-15T03:38:44.327Z,34.03
2024-01-15T03:41:14.506Z,35.92
2024-01-15T03:43:45.186Z,34.92
2024-01-15T03:46:15.010Z,32.70
2024-01-15T03:48:44.905Z,33.35
2024-01-15T03:51:14.951Z,31.05
2024-01-15T03:53:44.857Z,41.05
2024-01-15T03:56:14.892Z,29.73
2024-01-15T03:58:44.793Z,33.08
2024-01-15T04:01:14.941Z,30.52
2024-01-15T04:03:47.921Z,33.72
2024-01-15T04:06:18.143Z,31.63
2024-01-15T04:08:48.076Z,30.95
2024-01-15T04:11:18.053Z,31.05
2024-01-15T04:13:48.141Z,31.77
2024-01-15T04:16:18.317Z,25.90
2024-01-15T04:18:52.173Z,27.20
2024-01-15T04:21:22.450Z,25.88
2024-01-15T04:23:53.281Z,28.23
2024-01-15T04:26:23.712Z,39.42
2024-01-15T04:28:53.699Z,36.10
2024-01-15T04:31:29.459Z,25.52
2024-01-15T04:33:59.655Z,29.83
2024-01-15T04:36:29.961Z,27.55
2024-01-15T04:39:00.011Z,32.60
2024-01-15T04:41:38.769Z,23.98
2024-01-15T04:44:08.771Z,27.38
2024-01-15T04:46:38.573Z,29.02
2024-01-15T04:49:08.594Z,24.95
2024-01-15T04:51:38.682Z,21.90
2024-01-15T04:54:08.722Z,29.83
2024-01-15T04:56:38.405Z,25.58
2024-01-15T04:59:08.750Z,20.70
2024-01-15T05:01:38.424Z,19.38
2024-01-15T05:04:10.045Z,15.50
2024-01-15T05:06:40.054Z,18.83
2024-01-15T05:09:18.006Z,16.73
2024-01-15T05:11:48.202Z,15.48
2024-01-15T05:14:18.162Z,24.80
2024-01-15T05:16:52.680Z,27.00
2024-01-15T05:19:22.792Z,29.75
2024-01-15T05:21:53.339Z,27.73
2024-01-15T05:24:23.715Z,30.73
2024-01-15T05:26:54.753Z,29.50
2024-01-15T05:29:25.193Z,23.58
2024-01-15T05:31:55.748Z,29.30
2024-01-15T05:34:28.721Z,21.35
2024-01-15T05:36:58.856Z,27.58
2024-01-15T05:39:28.998Z,24.60
2024-01-15T05:42:01.581Z,24.00
2024-01-15T05:44:31.533Z,16.95
2024-01-15T05:47:02.058Z,20.83
2024-01-15T05:49:32.476Z,30.88
2024-01-15T05:52:05.163Z,26.33
2024-01-15T05:54:35.118Z,22.70
2024-01-15T05:57:06.468Z,24.42
2024-01-15T05:59:38.298Z,27.08
2024-01-15T06:02:17.116Z,18.58
2024-01-15T06:04:47.813Z,16.95
2024-01-15T06:07:17.616Z,18.80
2024-01-15T06:09:47.328Z,21.02
2024-01-15T06:12:17.322Z,17.25
2024-01-15T06:14:47.422Z,21.30
2024-01-15T06:17:18.030Z,20.50
2024-01-15T06:19:47.947Z,19.42
2024-01-15T06:22:17.907Z,19.77
2024-01-15T06:24:48.641Z,19.33
2024-01-15T06:27:18.759Z,24.02
2024-01-15T06:29:50.865Z,22.00
2024-01-15T06:32:21.380Z,16.38
2024-01-15T06:34:52.077Z,16.60
2024-01-15T06:37:22.501Z,20.85
2024-01-15T06:39:52.606Z,20.13
2024-01-15T06:42:24.113Z,21.77
2024-01-15T06:44:54.098Z,17.20
2024-01-15T06:47:24.142Z,13.48
2024-01-15T06:49:54.571Z,15.77
2024-01-15T06:52:24.646Z,21.00
2024-01-15T06:54:54.422Z,23.85
2024-01-15T06:57:24.506Z,23.45
2024-01-15T06:59:54.471Z,22.73
2024-01-15T07:02:24.471Z,17.95
2024-01-15T07:04:54.811Z,23.17
2024-01-15T07:07:24.790Z,13.23
2024-01-15T07:09:54.725Z,14.15
2024-01-15T07:12:25.350Z,8.98
2024-01-15T07:14:55.204Z,9.70
2024-01-15T07:17:25.630Z,9.93
2024-01-15T07:19:55.685Z,15.98
2024-01-15T07:22:25.629Z,13.80
2024-01-15T07:24:56.697Z,14.63
2024-01-15T07:27:27.335Z,8.23
2024-01-15T07:30:00.040Z,7.53
2024-01-15T07:32:40.215Z,9.82
2024-01-15T07:35:10.503Z,7.63
2024-01-15T07:37:40.580Z,9.32
2024-01-15T07:40:11.217Z,14.15
2024-01-15T07:42:41.550Z,12.07
2024-01-15T07:45:13.104Z,8.95
2024-01-15T07:47:43.554Z,9.18
2024-01-15T07:50:14.023Z,10.75
2024-01-15T07:52:46.706Z,11.63
2024-01-15T07:55:17.145Z,8.05
2024-01-15T07:57:53.378Z,7.95
2024-01-15T08:00:28.803Z,9.00
2024-01-15T08:02:59.069Z,12.07
2024-01-15T08:05:30.263Z,5.97
2024-01-15T08:08:02.240Z,7.53
2024-01-15T08:10:32.792Z,8.00
2024-01-15T08:13:02.790Z,8.55
2024-01-15T08:15:32.704Z,7.22
2024-01-15T08:18:02.587Z,7.80
2024-01-15T08:20:35.168Z,10.40
2024-01-15T08:23:05.449Z,6.22
2024-01-15T08:25:35.564Z,7.00
2024-01-15T08:28:07.370Z,7.82
2024-01-15T08:30:38.292Z,6.95
2024-01-15T08:33:18.441Z,6.28
2024-01-15T08:35:51.586Z,7.03
2024-01-15T08:38:22.508Z,8.68
2024-01-15T08:40:53.228Z,7.03
2024-01-15T08:43:23.154Z,6.57
2024-01-15T08:45:53.285Z,11.68
2024-01-15T08:48:23.510Z,10.77
2024-01-15T08:50:53.580Z,7.85
2024-01-15T08:53:23.959Z,14.70
2024-01-15T08:55:54.366Z,6.35
2024-01-15T08:58:27.220Z,7.53
2024-01-15T09:00:57.528Z,9.05
2024-01-15T09:03:28.056Z,10.05
2024-01-15T09:05:58.336Z,6.88
2024-01-15T09:08:47.429Z,8.70
2024-01-15T09:11:17.623Z,7.88
2024-01-15T09:13:47.540Z,10.30
2024-01-15T09:16:18.111Z,8.32
2024-01-15T09:18:49.183Z,13.85
2024-01-15T09:21:19.217Z,14.80
2024-01-15T09:23:49.045Z,10.65
2024-01-15T09:26:18.903Z,12.07
2024-01-15T09:28:49.047Z,12.23
2024-01-15T09:31:22.658Z,10.93
2024-01-15T09:33:58.323Z,8.27
2024-01-15T09:36:29.309Z,8.15
2024-01-15T09:39:01.969Z,9.18
2024-01-15T09:41:32.025Z,14.93
2024-01-15T09:44:01.992Z,11.32
2024-01-15T09:46:32.902Z,10.07
2024-01-15T09:49:04.217Z,9.02
2024-01-15T09:51:35.779Z,10.05
2024-01-15T09:54:06.203Z,9.35
2024-01-15T09:56:36.455Z,9.02
2024-01-15T09:59:06.809Z,14.13
2024-01-15T10:01:39.455Z,15.45
2024-01-15T10:04:09.868Z,11.88
2024-01-15T10:06:41.541Z,13.80
2024-01-15T10:09:16.639Z,18.17
2024-01-15T10:11:47.290Z,20.45
2024-01-15T10:14:17.464Z,14.15
2024-01-15T10:16:57.587Z,13.25
2024-01-15T10:19:27.775Z,15.57
2024-01-15T10:21:58.530Z,20.75
2024-01-15T10:24:30.727Z,17.95
2024-01-15T10:27:13.822Z,16.52
2024-01-15T10:29:45.180Z,20.92
2024-01-15T10:32:15.207Z,22.17
2024-01-15T10:34:45.377Z,21.95
2024-01-15T10:37:17.532Z,26.45
2024-01-15T10:39:49.536Z,34.92
2024-01-15T10:42:22.859Z,36.10
2024-01-15T10:44:55.253Z,40.38
2024-01-15T10:47:25.961Z,35.92
2024-01-15T10:49:56.307Z,34.08
2024-01-15T10:52:26.500Z,31.55
2024-01-15T10:54:57.007Z,36.38
2024-01-15T10:57:29.182Z,36.60
2024-01-15T11:00:00.772Z,29.85
2024-01-15T11:02:31.585Z,30.63
2024-01-15T11:05:02.082Z,31.33
2024-01-15T11:07:35.380Z,32.90
2024-01-15T11:10:10.692Z,31.42
2024-01-15T11:12:44.663Z,30.08
2024-01-15T11:15:23.176Z,34.50
2024-01-15T11:18:07.710Z,36.10
2024-01-15T11:21:19.077Z,37.05
2024-01-15T11:24:00.552Z,29.42
2024-01-15T11:26:36.915Z,36.50
2024-01-15T11:29:09.106Z,36.08
2024-01-15T11:31:42.234Z,38.17
2024-01-15T11:34:14.375Z,35.72
2024-01-15T11:36:56.593Z,30.67
2024-01-15T11:39:30.045Z,26.00
2024-01-15T11:42:01.911Z,27.55
2024-01-15T11:44:32.826Z,23.55
2024-01-15T11:47:07.939Z,20.60
2024-01-15T11:49:59.866Z,18.05
2024-01-15T11:52:35.630Z,21.58
2024-01-15T11:55:41.068Z,20.58
2024-01-15T11:58:12.193Z,19.85
2024-01-15T12:00:51.649Z,23.02
2024-01-15T12:03:27.952Z,27.23
2024-01-15T12:05:58.018Z,23.75
2024-01-15T12:08:30.197Z,24.55
2024-01-15T12:11:02.339Z,24.95
2024-01-15T12:13:32.822Z,23.55
2024-01-15T12:16:06.286Z,20.08
2024-01-15T12:18:37.210Z,33.67
2024-01-15T12:21:08.282Z,31.20
2024-01-15T12:23:51.349Z,36.10
2024-01-15T12:26:21.821Z,33.95
2024-01-15T12:28:55.538Z,31.05
2024-01-15T12:31:27.118Z,36.35
2024-01-15T12:33:58.903Z,35.17
2024-01-15T12:36:29.426Z,22.38
2024-01-15T12:39:02.507Z,29.98
2024-01-15T12:41:37.489Z,26.75
2024-01-15T12:44:07.651Z,32.58
2024-01-15T12:46:40.153Z,25.55
2024-01-15T12:49:11.586Z,26.60
2024-01-15T12:51:43.251Z,21.20
2024-01-15T12:54:14.256Z,22.20
2024-01-15T12:56:44.199Z,25.20
2024-01-15T12:59:18.387Z,18.98
2024-01-15T13:01:49.191Z,18.85
2024-01-15T13:04:26.676Z,14.30
2024-01-15T13:06:56.973Z,27.70
2024-01-15T13:09:27.103Z,28.00
2024-01-15T13:11:57.175Z,19.45
2024-01-15T13:14:28.014Z,27.50
2024-01-15T13:16:59.027Z,19.50
2024-01-15T13:19:29.872Z,20.20
2024-01-15T13:22:02.429Z,17.08
2024-01-15T13:24:32.521Z,20.67
2024-01-15T13:27:02.544Z,23.52
2024-01-15T13:29:32.503Z,23.63
2024-01-15T13:32:04.806Z,35.33
2024-01-15T13:34:35.776Z,26.90
2024-01-15T13:37:08.410Z,18.50
2024-01-15T13:39:38.916Z,19.73
2024-01-15T13:42:08.875Z,19.13
2024-01-15T13:44:38.863Z,16.83
2024-01-15T13:47:08.861Z,18.00
2024-01-15T13:49:40.785Z,15.30
2024-01-15T13:52:10.763Z,16.98
2024-01-15T13:54:48.431Z,13.13
2024-01-15T13:57:29.655Z,12.63
2024-01-15T14:00:00.343Z,15.20
2024-01-15T14:02:30.423Z,15.52
2024-01-15T14:05:00.910Z,15.80
2024-01-15T14:07:33.863Z,18.25
2024-01-15T14:10:20.440Z,17.38
2024-01-15T14:12:50.911Z,13.70
2024-01-15T14:15:25.577Z,17.92
2024-01-15T14:17:55.579Z,20.15
2024-01-15T14:20:25.297Z,19.90
2024-01-15T14:22:55.395Z,16.13
2024-01-15T14:25:29.045Z,18.90
2024-01-15T14:27:58.908Z,17.83
2024-01-15T14:30:28.934Z,16.87
2024-01-15T14:33:01.965Z,15.35
2024-01-15T14:35:31.991Z,19.25
2024-01-15T14:38:20.567Z,20.67
2024-01-15T14:40:51.381Z,17.83
2024-01-15T14:43:22.071Z,18.88
2024-01-15T14:45:52.040Z,16.70
2024-01-15T14:48:22.060Z,15.55
2024-01-15T14:50:52.744Z,16.90
2024-01-15T14:53:23.451Z,15.52
2024-01-15T14:55:56.694Z,17.30
2024-01-15T14:58:26.766Z,20.63
2024-01-15T15:00:58.175Z,21.23
2024-01-15T15:03:28.530Z,23.17
2024-01-15T15:05:59.064Z,25.23
2024-01-15T15:08:29.023Z,29.70
2024-01-15T15:10:59.231Z,27.95
2024-01-15T15:13:38.007Z,27.40
2024-01-15T15:16:15.669Z,25.98
2024-01-15T15:18:48.265Z,29.00
2024-01-15T15:21:18.725Z,27.02
2024-01-15T15:23:54.916Z,26.13
2024-01-15T15:26:24.835Z,24.88
2024-01-15T15:28:55.788Z,26.38
2024-01-15T15:31:27.620Z,23.17
2024-01-15T15:33:57.645Z,29.42
2024-01-15T15:36:28.355Z,31.67
2024-01-15T15:39:00.388Z,33.13
2024-01-15T15:41:30.602Z,32.08
2024-01-15T15:44:00.423Z,29.55
2024-01-15T15:46:30.608Z,31.02
2024-01-15T15:49:03.117Z,23.20
2024-01-15T15:51:35.373Z,28.95
2024-01-15T15:54:07.355Z,33.65
2024-01-15T15:56:42.271Z,26.48
2024-01-15T15:59:12.074Z,28.23
2024-01-15T16:01:44.481Z,26.63
2024-01-15T16:04:14.751Z,24.38
2024-01-15T16:06:45.117Z,23.08
2024-01-15T16:09:18.269Z,20.13
2024-01-15T16:11:48.963Z,24.95
2024-01-15T16:14:19.919Z,19.50
2024-01-15T16:23:13.055Z,24.60
2024-01-15T16:23:26.622Z,21.15
2024-01-15T16:23:42.381Z,24.40
2024-01-15T16:25:25.381Z,18.00
2024-01-15T16:27:55.440Z,23.42
2024-01-15T16:30:30.328Z,20.30
2024-01-15T16:33:07.417Z,22.75
2024-01-15T16:35:38.239Z,18.67
2024-01-15T16:38:08.567Z,19.60
2024-01-15T16:40:40.221Z,18.92
2024-01-15T16:43:11.157Z,19.45
2024-01-15T16:45:41.787Z,16.80
2024-01-15T16:48:11.937Z,21.50
2024-01-15T16:50:42.305Z,18.75
2024-01-15T16:53:12.214Z,21.55
2024-01-15T16:55:42.181Z,18.60
2024-01-15T16:58:12.057Z,22.83
2024-01-15T17:00:41.860Z,26.38
2024-01-15T17:03:11.757Z,22.08
2024-01-15T17:05:43.321Z,23.40
2024-01-15T17:08:13.631Z,23.23
2024-01-15T17:10:43.587Z,19.45
2024-01-15T17:13:13.882Z,16.92
2024-01-15T17:15:43.917Z,20.30
2024-01-15T17:18:13.993Z,21.27
2024-01-15T17:20:47.913Z,14.65
2024-01-15T17:23:17.955Z,16.45
2024-01-15T17:25:47.832Z,14.13
2024-01-15T17:28:17.524Z,18.05
2024-01-15T17:30:48.858Z,19.00
2024-01-15T17:33:23.252Z,16.38
2024-01-15T17:35:54.925Z,16.23
2024-01-15T17:38:27.904Z,18.42
2024-01-15T17:40:57.816Z,17.27
2024-01-15T17:43:28.336Z,15.32
2024-01-15T17:46:02.708Z,16.38
2024-01-15T17:48:37.186Z,15.05
2024-01-15T17:51:08.128Z,12.25
2024-01-15T17:53:37.956Z,14.68
2024-01-15T17:56:07.859Z,11.48
2024-01-15T17:58:37.738Z,13.45
2024-01-15T18:01:10.130Z,13.25
2024-01-15T18:03:41.415Z,11.55
2024-01-15T18:06:13.731Z,14.25
2024-01-15T18:08:43.904Z,15.93
2024-01-15T18:11:21.092Z,11.95
2024-01-15T18:13:51.524Z,13.27
2024-01-15T18:16:27.523Z,13.45
2024-01-15T18:18:58.231Z,10.80
2024-01-15T18:21:28.916Z,13.90
2024-01-15T18:23:58.790Z,13.40
2024-01-15T18:26:30.895Z,11.18
2024-01-15T18:29:01.118Z,13.70
2024-01-15T18:31:32.026Z,12.98
2024-01-15T18:34:02.284Z,16.17
2024-01-15T18:36:32.371Z,13.38
2024-01-15T18:39:07.963Z,10.50
2024-01-15T18:41:38.352Z,11.65
2024-01-15T18:44:09.164Z,15.07
2024-01-15T18:46:39.762Z,10.30
2024-01-15T18:49:20.285Z,13.25
2024-01-15T18:51:54.468Z,11.35
2024-01-15T18:54:25.145Z,11.02
2024-01-15T18:56:55.349Z,12.05
2024-01-15T18:59:26.233Z,11.13
2024-01-15T19:01:56.071Z,9.68
2024-01-15T19:04:26.807Z,10.85
2024-01-15T19:06:56.616Z,12.25
2024-01-15T19:09:27.937Z,10.23
2024-01-15T19:11:58.008Z,12.10
2024-01-15T19:14:28.681Z,9.85
2024-01-15T19:16:59.652Z,13.48
2024-01-15T19:19:30.680Z,11.93
2024-01-15T19:22:00.625Z,9.02
2024-01-15T19:24:30.510Z,12.32
2024-01-15T19:27:00.482Z,11.70
2024-01-15T19:29:33.703Z,12.85
2024-01-15T19:32:05.201Z,8.48
2024-01-15T19:34:35.353Z,12.38
2024-01-15T19:37:06.574Z,12.38
2024-01-15T19:39:36.445Z,12.32
2024-01-15T19:42:06.599Z,8.82
2024-01-15T19:44:36.472Z,7.90
2024-01-15T19:47:06.369Z,8.20
2024-01-15T19:49:36.406Z,5.82
2024-01-15T19:52:07.062Z,6.20
2024-01-15T19:54:37.683Z,5.45
2024-01-15T19:57:16.241Z,6.38
2024-01-15T19:59:46.231Z,7.15
2024-01-15T20:02:16.329Z,4.95
2024-01-15T20:04:46.646Z,8.55
2024-01-15T20:07:16.464Z,6.30
2024-01-15T20:09:48.206Z,7.72
2024-01-15T20:12:18.407Z,12.65
2024-01-15T20:14:48.235Z,10.57
2024-01-15T20:17:21.836Z,9.68
2024-01-15T20:19:52.392Z,9.43
2024-01-15T20:22:22.401Z,10.82
2024-01-15T20:24:53.242Z,8.45
2024-01-15T20:27:23.814Z,10.20
2024-01-15T20:29:53.976Z,12.25
2024-01-15T20:32:26.760Z,9.75
2024-01-15T20:34:56.884Z,10.68
2024-01-15T20:37:26.894Z,9.52
2024-01-15T20:39:56.933Z,13.13
2024-01-15T20:42:28.080Z,12.05
2024-01-15T20:44:58.176Z,11.57
2024-01-15T20:47:28.264Z,11.23
2024-01-15T20:49:58.170Z,11.82
2024-01-15T20:52:28.576Z,10.10
2024-01-15T20:54:58.269Z,11.05
2024-01-15T20:57:28.065Z,11.02
2024-01-15T20:59:57.969Z,10.15
2024-01-15T21:02:27.987Z,7.93
2024-01-15T21:04:57.971Z,10.13
2024-01-15T21:07:29.883Z,7.72
2024-01-15T21:09:59.689Z,7.10
2024-01-15T21:12:29.604Z,8.13
2024-01-15T21:14:59.445Z,6.35
2024-01-15T21:17:29.382Z,8.20
2024-01-15T21:20:00.676Z,9.90
2024-01-15T21:22:30.853Z,8.48
2024-01-15T21:25:00.621Z,7.88
2024-01-15T21:27:31.095Z,9.25
2024-01-15T21:30:01.504Z,8.55
2024-01-15T21:32:31.451Z,9.18
2024-01-15T21:35:03.053Z,8.80
2024-01-15T21:37:33.309Z,10.32
2024-01-15T21:40:05.150Z,14.10
2024-01-15T21:42:46.438Z,11.18
2024-01-15T21:45:16.644Z,10.45
2024-01-15T21:47:46.442Z,9.05
2024-01-15T21:50:16.571Z,10.13
2024-01-15T21:52:51.525Z,11.90
2024-01-15T21:55:24.062Z,10.43
2024-01-15T21:57:54.623Z,10.63
2024-01-15T22:00:24.433Z,11.75
2024-01-15T22:02:55.156Z,11.57
2024-01-15T22:05:25.176Z,13.75
2024-01-15T22:07:55.092Z,11.25
2024-01-15T22:10:25.004Z,11.27
2024-01-15T22:12:54.891Z,12.30
2024-01-15T22:15:25.310Z,14.20
2024-01-15T22:17:57.633Z,14.73
2024-01-15T22:20:27.621Z,14.27
2024-01-15T22:22:59.998Z,16.75
2024-01-15T22:25:30.157Z,15.35
2024-01-15T22:28:00.241Z,12.32
2024-01-15T22:30:31.852Z,14.65
2024-01-15T22:33:02.801Z,16.48
2024-01-15T22:35:33.332Z,17.20
2024-01-15T22:38:03.288Z,24.55
2024-01-15T22:40:36.210Z,18.13
2024-01-15T22:43:06.520Z,15.85
2024-01-15T22:45:37.319Z,19.48
2024-01-15T22:48:08.124Z,15.90
2024-01-15T22:50:41.151Z,15.48
2024-01-15T22:53:11.625Z,16.38
2024-01-15T22:55:41.714Z,20.73
2024-01-15T22:58:11.384Z,17.67
2024-01-15T23:00:45.868Z,15.55
2024-01-15T23:03:16.273Z,16.25
2024-01-15T23:05:46.551Z,17.50
2024-01-15T23:08:16.737Z,17.83
2024-01-15T23:10:50.168Z,23.33
2024-01-15T23:13:20.283Z,24.20
2024-01-15T23:15:52.852Z,22.30
2024-01-15T23:18:22.827Z,19.88
2024-01-15T23:20:52.825Z,17.08
2024-01-15T23:23:22.704Z,18.25
2024-01-15T23:25:52.539Z,22.05
2024-01-15T23:28:22.452Z,23.67
2024-01-15T23:30:52.367Z,26.17
2024-01-15T23:33:22.688Z,20.73
2024-01-15T23:35:55.154Z,21.50
2024-01-15T23:38:26.590Z,16.80
2024-01-15T23:40:58.239Z,28.15
2024-01-15T23:43:28.440Z,19.77
2024-01-15T23:46:10.066Z,22.90
2024-01-15T23:48:44.410Z,23.80
2024-01-15T23:51:14.478Z,22.20
2024-01-15T23:53:44.796Z,22.92
2024-01-15T23:56:16.208Z,27.17
2024-01-15T23:58:46.997Z,27.17
